Terminal Aerodrome Forecast
Issued by NWS

Home | Current Version | Previous Version | Text Only | Print | Product List | Glossary On
Versions: 1 2 3 4 5 6 7 8 9 10 11 12 13 14 15 16
530
FTUS45 KABQ 270532
TAFSAF
TAF
KSAF 270532Z 2706/2806 16006KT P6SM SKC
     FM271000 01006KT P6SM FEW120 SCT200
     FM271800 19008KT P6SM SCT120
     FM280100 15005KT P6SM FEW120=

USA.gov is the U.S. government's official web portal to all federal, state and local government web resources and services.